sensor_id;sensor_type;location;lat;lon;timestamp;pressure;altitude;pressure_sealevel;temperature;humidity
35224;BME280;21367;51.930;8.112;2023-07-29T00:02:46;100128.47;;;20.36;100.00
35224;BME280;21367;51.930;8.112;2023-07-29T00:07:52;100131.94;;;20.37;100.00
35224;BME280;21367;51.930;8.112;2023-07-29T00:12:55;100126.88;;;20.17;100.00
35224;BME280;21367;51.930;8.112;2023-07-29T00:17:59;100130.41;;;20.05;100.00
35224;BME280;21367;51.930;8.112;2023-07-29T00:23:05;100123.41;;;20.16;100.00
35224;BME280;21367;51.930;8.112;2023-07-29T00:28:09;100113.00;;;20.10;100.00
35224;BME280;21367;51.930;8.112;2023-07-29T00:33:13;100110.53;;;19.85;100.00
35224;BME280;21367;51.930;8.112;2023-07-29T00:38:19;100115.66;;;20.01;100.00
35224;BME280;21367;51.930;8.112;2023-07-29T00:43:23;100119.25;;;19.83;100.00
35224;BME280;21367;51.930;8.112;2023-07-29T00:48:27;100103.66;;;19.72;100.00
35224;BME280;21367;51.930;8.112;2023-07-29T00:53:33;100114.09;;;19.58;100.00
35224;BME280;21367;51.930;8.112;2023-07-29T00:58:37;100104.53;;;19.74;100.00
35224;BME280;21367;51.930;8.112;2023-07-29T01:03:41;100106.28;;;19.55;100.00
35224;BME280;21367;51.930;8.112;2023-07-29T01:08:52;100106.28;;;19.63;100.00
35224;BME280;21367;51.930;8.112;2023-07-29T01:14:02;100101.88;;;19.77;100.00
35224;BME280;21367;51.930;8.112;2023-07-29T01:19:15;100094.00;;;19.88;100.00
35224;BME280;21367;51.930;8.112;2023-07-29T01:24:28;100080.22;;;19.58;100.00
35224;BME280;21367;51.930;8.112;2023-07-29T01:29:32;100089.78;;;19.55;100.00
35224;BME280;21367;51.930;8.112;2023-07-29T01:34:41;100074.19;;;19.50;100.00
35224;BME280;21367;51.930;8.112;2023-07-29T01:39:49;100087.25;;;19.42;100.00
35224;BME280;21367;51.930;8.112;2023-07-29T01:44:53;100090.72;;;19.45;100.00
35224;BME280;21367;51.930;8.112;2023-07-29T01:49:57;100081.16;;;19.47;100.00
35224;BME280;21367;51.930;8.112;2023-07-29T01:55:04;100074.25;;;19.30;100.00
35224;BME280;21367;51.930;8.112;2023-07-29T02:00:09;100068.22;;;19.24;100.00
35224;BME280;21367;51.930;8.112;2023-07-29T02:05:15;100061.31;;;19.18;100.00
35224;BME280;21367;51.930;8.112;2023-07-29T02:10:22;100066.47;;;19.26;100.00
35224;BME280;21367;51.930;8.112;2023-07-29T02:15:25;100056.88;;;19.35;100.00
35224;BME280;21367;51.930;8.112;2023-07-29T02:20:29;100049.88;;;19.42;100.00
35224;BME280;21367;51.930;8.112;2023-07-29T02:25:37;100049.91;;;19.44;100.00
35224;BME280;21367;51.930;8.112;2023-07-29T02:30:41;100040.25;;;19.58;100.00
35224;BME280;21367;51.930;8.112;2023-07-29T02:35:46;100054.34;;;19.15;100.00
35224;BME280;21367;51.930;8.112;2023-07-29T02:40:52;100060.34;;;19.36;100.00
35224;BME280;21367;51.930;8.112;2023-07-29T02:45:56;100065.50;;;19.48;100.00
35224;BME280;21367;51.930;8.112;2023-07-29T02:50:59;100062.03;;;19.48;100.00
35224;BME280;21367;51.930;8.112;2023-07-29T02:56:06;100054.44;;;18.88;100.00
35224;BME280;21367;51.930;8.112;2023-07-29T03:01:10;100055.97;;;19.42;100.00
35224;BME280;21367;51.930;8.112;2023-07-29T03:06:14;100047.41;;;19.19;100.00
35224;BME280;21367;51.930;8.112;2023-07-29T03:11:21;100044.75;;;19.24;100.00
35224;BME280;21367;51.930;8.112;2023-07-29T03:16:25;100045.50;;;19.52;100.00
35224;BME280;21367;51.930;8.112;2023-07-29T03:21:30;100047.28;;;19.45;100.00
35224;BME280;21367;51.930;8.112;2023-07-29T03:26:37;100051.53;;;19.63;100.00
35224;BME280;21367;51.930;8.112;2023-07-29T03:31:40;100046.31;;;19.68;100.00
35224;BME280;21367;51.930;8.112;2023-07-29T03:36:44;100040.38;;;19.35;100.00
35224;BME280;21367;51.930;8.112;2023-07-29T03:41:51;100037.81;;;19.23;100.00
35224;BME280;21367;51.930;8.112;2023-07-29T03:46:54;100036.94;;;19.27;100.00
35224;BME280;21367;51.930;8.112;2023-07-29T03:51:58;100043.75;;;19.57;100.00
35224;BME280;21367;51.930;8.112;2023-07-29T03:57:05;100042.00;;;19.65;100.00
35224;BME280;21367;51.930;8.112;2023-07-29T04:02:09;100035.88;;;19.61;100.00
35224;BME280;21367;51.930;8.112;2023-07-29T04:07:12;100025.47;;;19.69;100.00
35224;BME280;21367;51.930;8.112;2023-07-29T04:12:19;100028.06;;;19.68;100.00
35224;BME280;21367;51.930;8.112;2023-07-29T04:17:23;100021.97;;;19.75;100.00
35224;BME280;21367;51.930;8.112;2023-07-29T04:22:27;100018.41;;;19.83;100.00
35224;BME280;21367;51.930;8.112;2023-07-29T04:27:33;100031.47;;;19.79;100.00
35224;BME280;21367;51.930;8.112;2023-07-29T04:32:37;100020.19;;;19.77;100.00
35224;BME280;21367;51.930;8.112;2023-07-29T04:37:42;100023.56;;;19.94;100.00
35224;BME280;21367;51.930;8.112;2023-07-29T04:42:51;100016.63;;;19.93;100.00
35224;BME280;21367;51.930;8.112;2023-07-29T04:47:54;100014.81;;;20.00;100.00
35224;BME280;21367;51.930;8.112;2023-07-29T04:52:58;100014.94;;;19.80;100.00
35224;BME280;21367;51.930;8.112;2023-07-29T04:58:04;100015.03;;;19.58;100.00
35224;BME280;21367;51.930;8.112;2023-07-29T05:03:10;100013.84;;;20.08;100.00
35224;BME280;21367;51.930;8.112;2023-07-29T05:08:14;100000.72;;;20.22;100.00
35224;BME280;21367;51.930;8.112;2023-07-29T05:13:21;100005.16;;;20.11;100.00
35224;BME280;21367;51.930;8.112;2023-07-29T05:18:25;99991.88;;;20.39;100.00
35224;BME280;21367;51.930;8.112;2023-07-29T05:23:28;99997.00;;;20.46;100.00
35224;BME280;21367;51.930;8.112;2023-07-29T05:28:34;99988.41;;;20.38;100.00
35224;BME280;21367;51.930;8.112;2023-07-29T05:33:38;99986.31;;;19.72;100.00
35224;BME280;21367;51.930;8.112;2023-07-29T05:38:42;99979.91;;;20.13;100.00
35224;BME280;21367;51.930;8.112;2023-07-29T05:43:48;99996.34;;;20.23;100.00
35224;BME280;21367;51.930;8.112;2023-07-29T05:48:52;100008.38;;;20.39;100.00
35224;BME280;21367;51.930;8.112;2023-07-29T05:53:56;100024.16;;;20.27;100.00
35224;BME280;21367;51.930;8.112;2023-07-29T05:59:02;100033.06;;;20.03;100.00
35224;BME280;21367;51.930;8.112;2023-07-29T06:04:06;100038.22;;;20.09;100.00
35224;BME280;21367;51.930;8.112;2023-07-29T06:09:09;100038.44;;;19.81;100.00
35224;BME280;21367;51.930;8.112;2023-07-29T06:14:15;100026.19;;;19.86;100.00
35224;BME280;21367;51.930;8.112;2023-07-29T06:19:20;99993.31;;;19.69;100.00
35224;BME280;21367;51.930;8.112;2023-07-29T06:24:24;100002.59;;;20.05;100.00
35224;BME280;21367;51.930;8.112;2023-07-29T06:29:30;100006.19;;;19.92;100.00
35224;BME280;21367;51.930;8.112;2023-07-29T06:34:34;100031.94;;;20.33;100.00
35224;BME280;21367;51.930;8.112;2023-07-29T06:39:38;100052.03;;;20.20;100.00
35224;BME280;21367;51.930;8.112;2023-07-29T06:44:44;100063.28;;;20.30;100.00
35224;BME280;21367;51.930;8.112;2023-07-29T06:49:48;100074.81;;;20.03;100.00
35224;BME280;21367;51.930;8.112;2023-07-29T06:54:52;100063.56;;;19.93;100.00
35224;BME280;21367;51.930;8.112;2023-07-29T06:59:58;100069.44;;;20.20;100.00
35224;BME280;21367;51.930;8.112;2023-07-29T07:05:02;100068.31;;;20.54;100.00
35224;BME280;21367;51.930;8.112;2023-07-29T07:10:06;100071.56;;;20.79;100.00
35224;BME280;21367;51.930;8.112;2023-07-29T07:15:13;100086.06;;;21.10;100.00
35224;BME280;21367;51.930;8.112;2023-07-29T07:20:17;100082.53;;;21.15;100.00
35224;BME280;21367;51.930;8.112;2023-07-29T07:25:20;100089.50;;;21.12;100.00
35224;BME280;21367;51.930;8.112;2023-07-29T07:30:27;100088.25;;;21.46;100.00
35224;BME280;21367;51.930;8.112;2023-07-29T07:35:30;100092.84;;;21.26;100.00
35224;BME280;21367;51.930;8.112;2023-07-29T07:40:34;100093.22;;;20.89;98.02
35224;BME280;21367;51.930;8.112;2023-07-29T07:45:40;100099.69;;;20.45;100.00
35224;BME280;21367;51.930;8.112;2023-07-29T07:50:44;100104.88;;;20.56;98.45
35224;BME280;21367;51.930;8.112;2023-07-29T07:55:47;100093.63;;;21.33;92.40
35224;BME280;21367;51.930;8.112;2023-07-29T08:01:00;100094.50;;;21.35;88.65
35224;BME280;21367;51.930;8.112;2023-07-29T08:06:05;100103.81;;;20.74;90.43
35224;BME280;21367;51.930;8.112;2023-07-29T08:11:08;100101.00;;;20.95;90.57
35224;BME280;21367;51.930;8.112;2023-07-29T08:16:15;100097.84;;;21.47;89.08
35224;BME280;21367;51.930;8.112;2023-07-29T08:21:18;100109.09;;;21.54;84.83
35224;BME280;21367;51.930;8.112;2023-07-29T08:26:22;100102.22;;;21.47;79.74
35224;BME280;21367;51.930;8.112;2023-07-29T08:31:29;100104.50;;;21.71;79.42
35224;BME280;21367;51.930;8.112;2023-07-29T08:36:34;100102.44;;;21.95;77.35
35224;BME280;21367;51.930;8.112;2023-07-29T08:41:42;100093.78;;;21.90;75.67
35224;BME280;21367;51.930;8.112;2023-07-29T08:46:50;100088.31;;;22.07;76.17
35224;BME280;21367;51.930;8.112;2023-07-29T08:51:57;100091.13;;;21.94;78.37
35224;BME280;21367;51.930;8.112;2023-07-29T08:57:02;100081.13;;;22.21;77.56
35224;BME280;21367;51.930;8.112;2023-07-29T09:02:08;100084.72;;;22.14;75.13
35224;BME280;21367;51.930;8.112;2023-07-29T09:07:12;100082.09;;;22.17;75.13
35224;BME280;21367;51.930;8.112;2023-07-29T09:12:16;100092.13;;;22.43;74.66
35224;BME280;21367;51.930;8.112;2023-07-29T09:17:23;100093.78;;;21.90;74.05
35224;BME280;21367;51.930;8.112;2023-07-29T09:22:27;100103.25;;;22.57;72.34
35224;BME280;21367;51.930;8.112;2023-07-29T09:27:30;100100.31;;;23.25;71.30
35224;BME280;21367;51.930;8.112;2023-07-29T09:32:42;100099.53;;;23.19;69.56
35224;BME280;21367;51.930;8.112;2023-07-29T09:37:45;100107.00;;;24.58;65.93
35224;BME280;21367;51.930;8.112;2023-07-29T09:42:50;100104.84;;;24.37;67.25
35224;BME280;21367;51.930;8.112;2023-07-29T09:47:58;100105.56;;;24.45;65.67
35224;BME280;21367;51.930;8.112;2023-07-29T09:53:02;100092.44;;;23.67;66.85
35224;BME280;21367;51.930;8.112;2023-07-29T09:58:06;100096.97;;;23.16;68.31
35224;BME280;21367;51.930;8.112;2023-07-29T10:03:14;100096.84;;;23.65;67.21
35224;BME280;21367;51.930;8.112;2023-07-29T10:08:18;100096.31;;;23.91;67.89
35224;BME280;21367;51.930;8.112;2023-07-29T10:13:23;100098.25;;;24.20;66.04
35224;BME280;21367;51.930;8.112;2023-07-29T10:18:32;100092.97;;;24.92;63.91
35224;BME280;21367;51.930;8.112;2023-07-29T10:23:38;100095.66;;;25.53;60.68
35224;BME280;21367;51.930;8.112;2023-07-29T10:28:47;100099.56;;;25.39;60.68
35224;BME280;21367;51.930;8.112;2023-07-29T10:33:53;100101.81;;;24.55;64.88
35224;BME280;21367;51.930;8.112;2023-07-29T10:38:57;100107.09;;;23.34;66.50
35224;BME280;21367;51.930;8.112;2023-07-29T10:44:01;100105.00;;;25.01;63.80
35224;BME280;21367;51.930;8.112;2023-07-29T10:49:07;100094.25;;;26.00;60.43
35224;BME280;21367;51.930;8.112;2023-07-29T10:54:12;100084.59;;;26.56;58.67
35224;BME280;21367;51.930;8.112;2023-07-29T10:59:31;100091.66;;;26.27;59.02
35224;BME280;21367;51.930;8.112;2023-07-29T11:04:46;100096.38;;;26.17;59.87
35224;BME280;21367;51.930;8.112;2023-07-29T11:10:00;100094.63;;;27.68;56.39
35224;BME280;21367;51.930;8.112;2023-07-29T11:15:16;100074.66;;;26.64;57.65
35224;BME280;21367;51.930;8.112;2023-07-29T11:20:24;100068.16;;;26.74;58.40
35224;BME280;21367;51.930;8.112;2023-07-29T11:25:30;100074.34;;;27.47;56.06
35224;BME280;21367;51.930;8.112;2023-07-29T11:30:33;100061.28;;;26.42;59.08
35224;BME280;21367;51.930;8.112;2023-07-29T11:35:40;100046.25;;;26.45;59.41
35224;BME280;21367;51.930;8.112;2023-07-29T11:40:53;100071.88;;;28.74;54.33
35224;BME280;21367;51.930;8.112;2023-07-29T11:46:00;100075.88;;;25.99;60.34
35224;BME280;21367;51.930;8.112;2023-07-29T11:51:07;100072.22;;;26.03;60.63
35224;BME280;21367;51.930;8.112;2023-07-29T11:56:12;100063.97;;;27.17;58.52
35224;BME280;21367;51.930;8.112;2023-07-29T12:01:16;100058.84;;;26.11;58.30
35224;BME280;21367;51.930;8.112;2023-07-29T12:06:23;100077.78;;;24.69;64.91
35224;BME280;21367;51.930;8.112;2023-07-29T12:11:27;100053.25;;;26.46;60.05
35224;BME280;21367;51.930;8.112;2023-07-29T12:16:31;100059.31;;;26.22;60.15
35224;BME280;21367;51.930;8.112;2023-07-29T12:21:45;100066.66;;;25.25;62.21
35224;BME280;21367;51.930;8.112;2023-07-29T12:26:49;100082.44;;;25.25;63.50
35224;BME280;21367;51.930;8.112;2023-07-29T12:31:58;100082.31;;;24.64;64.68
35224;BME280;21367;51.930;8.112;2023-07-29T12:37:06;100076.75;;;24.76;64.52
35224;BME280;21367;51.930;8.112;2023-07-29T12:42:10;100068.63;;;25.18;65.04
35224;BME280;21367;51.930;8.112;2023-07-29T12:47:14;100061.09;;;28.78;56.12
35224;BME280;21367;51.930;8.112;2023-07-29T12:52:20;100056.78;;;29.55;54.25
35224;BME280;21367;51.930;8.112;2023-07-29T12:57:24;100062.00;;;30.30;51.54
35224;BME280;21367;51.930;8.112;2023-07-29T13:02:27;100044.50;;;30.96;49.94
35224;BME280;21367;51.930;8.112;2023-07-29T13:07:33;100044.91;;;29.44;50.59
35224;BME280;21367;51.930;8.112;2023-07-29T13:12:37;100059.28;;;28.99;51.86
35224;BME280;21367;51.930;8.112;2023-07-29T13:17:41;100059.44;;;28.96;54.10
35224;BME280;21367;51.930;8.112;2023-07-29T13:22:47;100062.91;;;28.13;56.38
35224;BME280;21367;51.930;8.112;2023-07-29T13:27:51;100056.75;;;29.17;53.32
35224;BME280;21367;51.930;8.112;2023-07-29T13:32:55;100054.63;;;30.37;50.68
35224;BME280;21367;51.930;8.112;2023-07-29T13:38:01;100058.63;;;27.89;54.25
35224;BME280;21367;51.930;8.112;2023-07-29T13:43:05;100057.00;;;26.91;58.55
35224;BME280;21367;51.930;8.112;2023-07-29T13:48:09;100065.94;;;26.62;59.12
35224;BME280;21367;51.930;8.112;2023-07-29T13:53:15;100055.06;;;28.12;56.51
35224;BME280;21367;51.930;8.112;2023-07-29T13:58:18;100067.66;;;28.49;53.08
35224;BME280;21367;51.930;8.112;2023-07-29T14:03:22;100059.59;;;26.67;56.70
35224;BME280;21367;51.930;8.112;2023-07-29T14:08:29;100068.09;;;25.96;60.91
35224;BME280;21367;51.930;8.112;2023-07-29T14:13:33;100059.84;;;25.49;60.14
35224;BME280;21367;51.930;8.112;2023-07-29T14:18:36;100072.06;;;24.87;64.26
35224;BME280;21367;51.930;8.112;2023-07-29T14:23:42;100074.91;;;25.12;64.02
35224;BME280;21367;51.930;8.112;2023-07-29T14:28:46;100085.22;;;24.53;66.31
35224;BME280;21367;51.930;8.112;2023-07-29T14:33:50;100101.22;;;24.05;66.85
35224;BME280;21367;51.930;8.112;2023-07-29T14:38:57;100111.53;;;23.75;69.03
35224;BME280;21367;51.930;8.112;2023-07-29T14:44:01;100117.25;;;23.51;69.77
35224;BME280;21367;51.930;8.112;2023-07-29T14:50:11;100106.22;;;23.35;70.79
35224;BME280;21367;51.930;8.112;2023-07-29T14:55:15;100110.28;;;23.05;75.21
35224;BME280;21367;51.930;8.112;2023-07-29T15:00:19;100181.97;;;22.47;87.35
35224;BME280;21367;51.930;8.112;2023-07-29T15:05:25;100197.19;;;20.40;99.48
35224;BME280;21367;51.930;8.112;2023-07-29T15:10:29;100215.88;;;18.99;100.00
35224;BME280;21367;51.930;8.112;2023-07-29T15:15:33;100198.47;;;18.56;100.00
35224;BME280;21367;51.930;8.112;2023-07-29T15:20:39;100208.94;;;18.87;100.00
35224;BME280;21367;51.930;8.112;2023-07-29T15:25:43;100213.91;;;17.95;100.00
35224;BME280;21367;51.930;8.112;2023-07-29T15:30:46;100215.75;;;18.33;100.00
35224;BME280;21367;51.930;8.112;2023-07-29T15:35:53;100210.53;;;18.22;100.00
35224;BME280;21367;51.930;8.112;2023-07-29T15:40:56;100201.06;;;18.50;100.00
35224;BME280;21367;51.930;8.112;2023-07-29T15:46:00;100208.06;;;18.94;100.00
35224;BME280;21367;51.930;8.112;2023-07-29T15:51:06;100208.91;;;19.22;100.00
35224;BME280;21367;51.930;8.112;2023-07-29T15:56:10;100202.81;;;19.37;100.00
35224;BME280;21367;51.930;8.112;2023-07-29T16:01:14;100196.41;;;20.28;99.47
35224;BME280;21367;51.930;8.112;2023-07-29T16:06:20;100179.09;;;21.26;97.21
35224;BME280;21367;51.930;8.112;2023-07-29T16:11:24;100172.69;;;23.32;87.42
35224;BME280;21367;51.930;8.112;2023-07-29T16:16:30;100162.78;;;23.47;78.72
35224;BME280;21367;51.930;8.112;2023-07-29T16:21:36;100171.38;;;24.37;78.90
35224;BME280;21367;51.930;8.112;2023-07-29T16:26:40;100163.72;;;25.01;76.35
35224;BME280;21367;51.930;8.112;2023-07-29T16:31:44;100166.88;;;25.78;73.38
35224;BME280;21367;51.930;8.112;2023-07-29T16:36:50;100154.81;;;26.30;71.99
35224;BME280;21367;51.930;8.112;2023-07-29T16:41:54;100161.25;;;25.29;73.64
35224;BME280;21367;51.930;8.112;2023-07-29T16:46:57;100149.81;;;27.02;67.33
35224;BME280;21367;51.930;8.112;2023-07-29T16:52:05;100145.63;;;26.95;66.32
35224;BME280;21367;51.930;8.112;2023-07-29T16:57:08;100136.56;;;27.29;64.72
35224;BME280;21367;51.930;8.112;2023-07-29T17:02:12;100142.25;;;28.12;65.21
35224;BME280;21367;51.930;8.112;2023-07-29T17:07:19;100133.59;;;27.13;63.37
35224;BME280;21367;51.930;8.112;2023-07-29T17:12:22;100139.66;;;27.16;65.11
35224;BME280;21367;51.930;8.112;2023-07-29T17:17:26;100144.63;;;27.49;64.76
35224;BME280;21367;51.930;8.112;2023-07-29T17:22:33;100132.69;;;27.62;62.97
35224;BME280;21367;51.930;8.112;2023-07-29T17:27:38;100123.81;;;27.65;65.93
35224;BME280;21367;51.930;8.112;2023-07-29T17:32:41;100123.88;;;27.15;65.65
35224;BME280;21367;51.930;8.112;2023-07-29T17:37:47;100137.25;;;26.01;68.02
35224;BME280;21367;51.930;8.112;2023-07-29T17:42:51;100139.63;;;24.11;76.59
35224;BME280;21367;51.930;8.112;2023-07-29T17:47:55;100153.28;;;22.93;81.83
35224;BME280;21367;51.930;8.112;2023-07-29T17:53:01;100154.69;;;22.61;85.38
35224;BME280;21367;51.930;8.112;2023-07-29T17:58:05;100161.97;;;22.43;86.59
35224;BME280;21367;51.930;8.112;2023-07-29T18:03:08;100152.09;;;22.00;90.45
35224;BME280;21367;51.930;8.112;2023-07-29T18:08:15;100154.81;;;21.92;90.82
35224;BME280;21367;51.930;8.112;2023-07-29T18:13:18;100152.72;;;21.51;92.76
35224;BME280;21367;51.930;8.112;2023-07-29T18:18:23;100148.53;;;21.33;94.74
35224;BME280;21367;51.930;8.112;2023-07-29T18:23:29;100144.59;;;21.75;92.24
35224;BME280;21367;51.930;8.112;2023-07-29T18:28:33;100160.22;;;21.81;92.93
35224;BME280;21367;51.930;8.112;2023-07-29T18:33:36;100166.63;;;21.54;94.54
35224;BME280;21367;51.930;8.112;2023-07-29T18:38:43;100176.38;;;21.37;96.48
35224;BME280;21367;51.930;8.112;2023-07-29T18:43:46;100171.28;;;21.23;98.18
35224;BME280;21367;51.930;8.112;2023-07-29T18:48:58;100188.47;;;21.50;97.02
35224;BME280;21367;51.930;8.112;2023-07-29T18:54:05;100190.41;;;21.26;99.59
35224;BME280;21367;51.930;8.112;2023-07-29T18:59:09;100188.34;;;20.68;100.00
35224;BME280;21367;51.930;8.112;2023-07-29T19:04:12;100177.72;;;20.87;100.00
35224;BME280;21367;51.930;8.112;2023-07-29T19:09:19;100190.81;;;20.85;100.00
35224;BME280;21367;51.930;8.112;2023-07-29T19:14:23;100182.94;;;20.88;100.00
35224;BME280;21367;51.930;8.112;2023-07-29T19:19:27;100180.41;;;20.79;100.00
35224;BME280;21367;51.930;8.112;2023-07-29T19:24:33;100183.13;;;20.64;100.00
35224;BME280;21367;51.930;8.112;2023-07-29T19:29:36;100177.81;;;20.74;100.00
35224;BME280;21367;51.930;8.112;2023-07-29T19:34:40;100189.59;;;20.03;100.00
35224;BME280;21367;51.930;8.112;2023-07-29T19:39:47;100192.88;;;20.32;100.00
35224;BME280;21367;51.930;8.112;2023-07-29T19:44:51;100193.91;;;20.04;100.00
35224;BME280;21367;51.930;8.112;2023-07-29T19:49:55;100193.88;;;20.08;100.00
35224;BME280;21367;51.930;8.112;2023-07-29T19:55:01;100211.34;;;19.94;100.00
35224;BME280;21367;51.930;8.112;2023-07-29T20:00:06;100210.47;;;19.95;100.00
35224;BME280;21367;51.930;8.112;2023-07-29T20:05:11;100211.34;;;19.96;100.00
35224;BME280;21367;51.930;8.112;2023-07-29T20:10:17;100205.38;;;19.54;100.00
35224;BME280;21367;51.930;8.112;2023-07-29T20:15:21;100214.06;;;19.53;100.00
35224;BME280;21367;51.930;8.112;2023-07-29T20:20:24;100208.94;;;18.96;100.00
35224;BME280;21367;51.930;8.112;2023-07-29T20:25:31;100211.44;;;19.54;100.00
35224;BME280;21367;51.930;8.112;2023-07-29T20:30:35;100201.91;;;19.47;100.00
35224;BME280;21367;51.930;8.112;2023-07-29T20:35:39;100201.88;;;19.55;100.00
35224;BME280;21367;51.930;8.112;2023-07-29T20:40:51;100192.38;;;19.38;100.00
35224;BME280;21367;51.930;8.112;2023-07-29T20:45:55;100204.59;;;18.75;100.00
35224;BME280;21367;51.930;8.112;2023-07-29T20:50:58;100193.28;;;19.24;100.00
35224;BME280;21367;51.930;8.112;2023-07-29T20:56:05;100184.63;;;19.03;100.00
35224;BME280;21367;51.930;8.112;2023-07-29T21:01:09;100172.50;;;18.96;100.00
35224;BME280;21367;51.930;8.112;2023-07-29T21:06:12;100183.75;;;19.06;100.00
35224;BME280;21367;51.930;8.112;2023-07-29T21:11:18;100179.41;;;19.08;100.00
35224;BME280;21367;51.930;8.112;2023-07-29T21:16:22;100189.81;;;18.95;100.00
35224;BME280;21367;51.930;8.112;2023-07-29T21:21:26;100195.06;;;18.85;100.00
35224;BME280;21367;51.930;8.112;2023-07-29T21:26:32;100192.34;;;18.33;100.00
35224;BME280;21367;51.930;8.112;2023-07-29T21:31:36;100195.84;;;18.58;100.00
35224;BME280;21367;51.930;8.112;2023-07-29T21:36:40;100192.41;;;18.56;100.00
35224;BME280;21367;51.930;8.112;2023-07-29T21:41:46;100203.69;;;18.56;100.00
35224;BME280;21367;51.930;8.112;2023-07-29T21:46:49;100189.78;;;18.45;100.00
35224;BME280;21367;51.930;8.112;2023-07-29T21:51:53;100192.38;;;18.43;100.00
35224;BME280;21367;51.930;8.112;2023-07-29T21:56:59;100200.16;;;18.36;100.00
35224;BME280;21367;51.930;8.112;2023-07-29T22:02:03;100201.03;;;18.24;100.00
35224;BME280;21367;51.930;8.112;2023-07-29T22:07:07;100207.09;;;18.24;100.00
35224;BME280;21367;51.930;8.112;2023-07-29T22:12:14;100199.31;;;18.31;100.00
35224;BME280;21367;51.930;8.112;2023-07-29T22:17:17;100204.47;;;18.20;100.00
35224;BME280;21367;51.930;8.112;2023-07-29T22:22:21;100215.69;;;18.07;100.00
35224;BME280;21367;51.930;8.112;2023-07-29T22:27:27;100211.38;;;18.09;100.00
35224;BME280;21367;51.930;8.112;2023-07-29T22:32:31;100213.97;;;18.06;100.00
35224;BME280;21367;51.930;8.112;2023-07-29T22:37:34;100219.88;;;17.74;100.00
35224;BME280;21367;51.930;8.112;2023-07-29T22:42:41;100232.81;;;17.66;100.00
35224;BME280;21367;51.930;8.112;2023-07-29T22:47:44;100231.06;;;17.64;100.00
35224;BME280;21367;51.930;8.112;2023-07-29T22:52:48;100249.31;;;17.71;100.00
35224;BME280;21367;51.930;8.112;2023-07-29T22:57:54;100257.94;;;17.67;100.00
35224;BME280;21367;51.930;8.112;2023-07-29T23:02:58;100257.03;;;17.59;100.00
35224;BME280;21367;51.930;8.112;2023-07-29T23:08:01;100256.00;;;17.35;100.00
35224;BME280;21367;51.930;8.112;2023-07-29T23:13:08;100259.53;;;17.47;100.00
35224;BME280;21367;51.930;8.112;2023-07-29T23:18:12;100259.47;;;17.36;100.00
35224;BME280;21367;51.930;8.112;2023-07-29T23:23:15;100267.34;;;17.47;100.00
35224;BME280;21367;51.930;8.112;2023-07-29T23:28:22;100269.13;;;17.52;100.00
35224;BME280;21367;51.930;8.112;2023-07-29T23:33:25;100267.44;;;17.59;100.00
35224;BME280;21367;51.930;8.112;2023-07-29T23:38:29;100271.66;;;17.48;100.00
35224;BME280;21367;51.930;8.112;2023-07-29T23:43:35;100273.16;;;17.15;100.00
35224;BME280;21367;51.930;8.112;2023-07-29T23:48:39;100267.22;;;17.27;100.00
35224;BME280;21367;51.930;8.112;2023-07-29T23:53:42;100270.59;;;17.20;100.00
35224;BME280;21367;51.930;8.112;2023-07-29T23:58:49;100268.03;;;17.21;100.00
